Time;durP1;ratioP1;P1;durP2;ratioP2;P2;SDS_P1;SDS_P2;PMS_P1;PMS_P2;Temp;Humidity;BMP_temperature;BMP_pressure;BME280_temperature;BME280_humidity;BME280_pressure;Samples;Min_cycle;Max_cycle;Signal;HPM_P1;HPM_P2
2022/05/10 00:00:44;;;;;;;2.55;0.80;;;20.40;55.20;;;;;;4213391;28;20066;-66
2022/05/10 00:03:08;;;;;;;3.17;1.17;;;20.40;55.30;;;;;;4210467;28;20105;-66
2022/05/10 00:05:36;;;;;;;0.20;0.20;;;20.40;55.30;;;;;;4211646;28;20083;-66
2022/05/10 00:08:00;;;;;;;1.45;1.35;;;20.40;55.40;;;;;;4194771;28;21520;-66
2022/05/10 00:10:23;;;;;;;0.20;0.20;;;20.40;55.40;;;;;;4222918;28;20052;-66
2022/05/10 00:12:46;;;;;;;1.27;1.17;;;20.40;55.40;;;;;;4227318;27;20075;-66
2022/05/10 00:15:09;;;;;;;1.10;1.00;;;20.40;55.50;;;;;;4228238;28;20050;-66
2022/05/10 00:17:35;;;;;;;0.80;0.80;;;20.40;55.50;;;;;;4226550;28;20082;-66
2022/05/10 00:19:57;;;;;;;1.67;1.38;;;20.40;55.50;;;;;;4211456;28;20544;-67
2022/05/10 00:22:19;;;;;;;1.25;1.13;;;20.40;55.50;;;;;;4210718;28;20135;-67
2022/05/10 00:24:43;;;;;;;3.78;1.70;;;20.30;55.50;;;;;;4211226;28;20048;-67
2022/05/10 00:27:05;;;;;;;0.00;0.00;;;20.30;55.60;;;;;;4211404;28;20117;-67
2022/05/10 00:29:27;;;;;;;0.65;0.65;;;20.30;55.60;;;;;;4194248;28;20093;-67
2022/05/10 00:31:51;;;;;;;0.38;0.38;;;20.30;55.70;;;;;;4193944;28;20052;-67
2022/05/10 00:34:17;;;;;;;0.00;0.00;;;20.30;55.70;;;;;;4197008;28;20067;-68
2022/05/10 00:36:39;;;;;;;0.90;0.85;;;20.30;55.70;;;;;;4210620;28;20044;-67
2022/05/10 00:39:02;;;;;;;1.08;1.08;;;20.30;55.80;;;;;;4227255;27;20047;-67
2022/05/10 00:41:31;;;;;;;1.67;1.58;;;20.30;55.80;;;;;;4227266;28;20416;-67
2022/05/10 00:43:59;;;;;;;0.63;0.60;;;20.30;55.80;;;;;;4227176;27;20105;-67
2022/05/10 00:46:27;;;;;;;1.65;0.90;;;20.30;55.90;;;;;;4228004;27;20051;-67
2022/05/10 00:48:56;;;;;;;0.30;0.30;;;20.30;56.00;;;;;;4211693;28;20052;-67
2022/05/10 00:51:28;;;;;;;13.95;1.23;;;20.30;56.70;;;;;;4210767;28;20116;-67
2022/05/10 00:53:57;;;;;;;0.30;0.30;;;20.30;56.10;;;;;;4210106;28;20052;-67
2022/05/10 00:56:27;;;;;;;14.70;1.92;;;20.30;56.20;;;;;;4210554;28;20052;-66
2022/05/10 00:58:56;;;;;;;0.88;0.88;;;20.30;56.20;;;;;;4209130;28;20044;-68
2022/05/10 01:01:26;;;;;;;1.65;1.55;;;20.30;56.40;;;;;;4193363;28;20072;-68
2022/05/10 01:03:54;;;;;;;3.67;2.28;;;20.30;56.40;;;;;;4196242;28;20454;-68
2022/05/10 01:06:24;;;;;;;0.52;0.50;;;20.20;56.40;;;;;;4209743;28;20060;-65
2022/05/10 01:08:53;;;;;;;0.17;0.17;;;20.20;56.60;;;;;;4210066;28;20529;-67
2022/05/10 01:11:20;;;;;;;0.85;0.85;;;20.20;56.50;;;;;;4210192;28;20411;-67
2022/05/10 01:13:46;;;;;;;0.65;0.65;;;20.20;57.40;;;;;;4210594;28;20097;-68
2022/05/10 01:16:13;;;;;;;0.88;0.88;;;20.20;56.70;;;;;;4208099;28;20544;-66
2022/05/10 01:18:40;;;;;;;0.85;0.85;;;20.20;56.70;;;;;;4210021;28;20541;-66
2022/05/10 01:21:13;;;;;;;0.93;0.85;;;20.20;56.70;;;;;;4210574;28;20052;-66
2022/05/10 01:23:55;;;;;;;1.30;1.10;;;20.10;56.60;;;;;;4193980;28;20055;-66
2022/05/10 01:26:29;;;;;;;0.75;0.75;;;20.20;56.60;;;;;;4191180;28;20060;-66
2022/05/10 01:28:58;;;;;;;0.80;0.80;;;20.20;56.60;;;;;;4192540;28;20139;-67
2022/05/10 01:31:25;;;;;;;0.22;0.22;;;20.10;56.60;;;;;;4201948;28;20122;-67
2022/05/10 01:33:50;;;;;;;6.88;1.60;;;20.10;56.70;;;;;;4209732;28;20420;-66
2022/05/10 01:36:21;;;;;;;0.95;0.95;;;20.10;56.70;;;;;;4207691;28;20051;-68
2022/05/10 01:38:55;;;;;;;0.00;0.00;;;20.10;56.70;;;;;;4193045;28;20098;-69
2022/05/10 01:41:24;;;;;;;1.45;1.33;;;20.10;57.50;;;;;;4192552;28;20052;-69
2022/05/10 01:43:52;;;;;;;0.43;0.43;;;20.10;56.80;;;;;;4191490;28;20060;-69
2022/05/10 01:46:19;;;;;;;0.20;0.20;;;20.10;56.80;;;;;;4192611;28;20407;-69
2022/05/10 01:48:46;;;;;;;1.23;1.23;;;20.10;56.80;;;;;;4177370;28;20132;-69
2022/05/10 01:51:16;;;;;;;0.00;0.00;;;20.10;56.90;;;;;;4191837;28;20056;-68
2022/05/10 01:53:41;;;;;;;0.10;0.10;;;20.10;56.90;;;;;;4192957;28;20048;-68
2022/05/10 01:56:06;;;;;;;0.40;0.40;;;20.10;56.90;;;;;;4192934;28;20048;-68
2022/05/10 01:58:31;;;;;;;0.20;0.20;;;20.10;56.90;;;;;;4192974;28;21742;-68
2022/05/10 02:00:57;;;;;;;0.75;0.75;;;20.10;56.90;;;;;;4198276;28;20085;-68
2022/05/10 02:03:24;;;;;;;1.02;0.95;;;20.10;57.00;;;;;;4224656;28;20062;-68
2022/05/10 02:05:52;;;;;;;0.10;0.10;;;20.10;57.00;;;;;;4208988;28;20048;-68
2022/05/10 02:08:24;;;;;;;0.73;0.73;;;20.10;57.00;;;;;;4193569;28;20506;-68
2022/05/10 02:10:51;;;;;;;2.65;1.38;;;20.00;57.10;;;;;;4209271;28;20447;-68
2022/05/10 02:13:17;;;;;;;4.65;0.68;;;20.10;57.20;;;;;;4217372;28;20063;-68
2022/05/10 02:15:46;;;;;;;3.30;3.10;;;20.00;57.20;;;;;;4225060;27;20405;-68
2022/05/10 02:18:15;;;;;;;1.90;1.80;;;20.00;57.20;;;;;;4225451;27;20058;-68
2022/05/10 02:20:46;;;;;;;1.52;1.25;;;20.00;57.20;;;;;;4225350;27;20066;-68
2022/05/10 02:23:11;;;;;;;;;;;20.00;57.30;;;;;;4225861;28;20044;-68
2022/05/10 02:25:38;;;;;;;0.15;0.15;;;20.00;57.20;;;;;;4215317;28;19973;-68
2022/05/10 02:28:04;;;;;;;5.53;1.67;;;20.00;57.30;;;;;;4208616;28;20154;-68
2022/05/10 02:30:29;;;;;;;1.23;1.20;;;20.00;57.40;;;;;;4208597;28;20121;-68
2022/05/10 02:33:07;;;;;;;0.90;0.90;;;20.00;57.40;;;;;;4216063;27;20036;-68
2022/05/10 02:35:31;;;;;;;0.00;0.00;;;20.00;57.40;;;;;;4207493;28;20437;-68
2022/05/10 02:37:55;;;;;;;6.70;1.65;;;20.00;57.50;;;;;;4208194;28;20074;-68
2022/05/10 02:40:17;;;;;;;0.00;0.00;;;20.00;57.50;;;;;;4208817;28;20071;-68
2022/05/10 02:42:45;;;;;;;1.02;1.02;;;20.00;57.50;;;;;;4208828;28;20066;-68
2022/05/10 02:45:09;;;;;;;0.00;0.00;;;20.00;57.50;;;;;;4208951;28;20097;-68
2022/05/10 02:47:33;;;;;;;3.22;2.55;;;19.90;57.50;;;;;;4208765;28;20076;-68
2022/05/10 02:49:55;;;;;;;0.08;0.08;;;20.00;57.60;;;;;;4208212;28;20052;-68
2022/05/10 02:52:17;;;;;;;0.00;0.00;;;20.00;57.60;;;;;;4213372;28;20052;-68
2022/05/10 02:54:41;;;;;;;0.80;0.52;;;20.00;57.60;;;;;;4225607;28;20042;-69
2022/05/10 02:57:04;;;;;;;0.30;0.30;;;19.90;57.60;;;;;;4224092;28;20402;-68
2022/05/10 02:59:31;;;;;;;1.45;1.35;;;20.00;57.70;;;;;;4225321;27;20063;-68
2022/05/10 03:01:59;;;;;;;0.25;0.25;;;19.90;57.80;;;;;;4223968;28;20048;-68
2022/05/10 03:04:22;;;;;;;0.95;0.90;;;19.90;57.80;;;;;;4192560;28;20048;-68
2022/05/10 03:06:46;;;;;;;0.20;0.20;;;19.90;57.80;;;;;;4208907;28;20547;-68
2022/05/10 03:09:08;;;;;;;1.05;1.05;;;19.90;57.80;;;;;;4208720;28;20055;-68
2022/05/10 03:11:32;;;;;;;0.30;0.30;;;19.90;57.90;;;;;;4208932;28;20052;-67
2022/05/10 03:13:56;;;;;;;0.00;0.00;;;19.90;57.80;;;;;;4225003;28;20512;-68
2022/05/10 03:16:18;;;;;;;21.08;1.17;;;19.90;57.80;;;;;;4225415;28;20051;-68
2022/05/10 03:18:40;;;;;;;0.22;0.22;;;19.90;57.90;;;;;;4225316;28;20348;-68
2022/05/10 03:21:03;;;;;;;0.00;0.00;;;19.90;57.90;;;;;;4223868;28;20054;-68
2022/05/10 03:23:27;;;;;;;1.35;1.30;;;19.90;57.90;;;;;;4209067;28;20048;-69
2022/05/10 03:25:49;;;;;;;0.17;0.15;;;19.90;58.00;;;;;;4209480;28;20052;-69
2022/05/10 03:28:14;;;;;;;0.68;0.68;;;19.90;58.10;;;;;;4207373;28;20040;-69
2022/05/10 03:30:36;;;;;;;3.05;2.13;;;19.90;58.10;;;;;;4212491;28;20051;-70
2022/05/10 03:32:58;;;;;;;0.00;0.00;;;19.90;58.10;;;;;;4212369;28;20048;-69
2022/05/10 03:35:21;;;;;;;0.00;0.00;;;20.00;58.00;;;;;;4208970;28;20563;-69
2022/05/10 03:37:43;;;;;;;0.63;0.63;;;19.90;58.00;;;;;;4210121;28;20048;-68
2022/05/10 03:40:06;;;;;;;0.25;0.25;;;19.90;58.00;;;;;;4211676;28;20097;-68
2022/05/10 03:42:28;;;;;;;0.10;0.10;;;19.90;57.90;;;;;;4211701;28;20084;-68
2022/05/10 03:44:52;;;;;;;0.28;0.20;;;19.90;57.90;;;;;;4211959;28;20040;-68
2022/05/10 03:47:14;;;;;;;0.47;0.47;;;19.90;58.00;;;;;;4227923;27;20497;-68
2022/05/10 03:49:37;;;;;;;0.35;0.35;;;19.90;58.00;;;;;;4227090;28;20051;-68
2022/05/10 03:52:00;;;;;;;0.00;0.00;;;19.90;58.00;;;;;;4227996;27;20478;-68
2022/05/10 03:54:22;;;;;;;0.43;0.43;;;19.90;58.00;;;;;;4228346;27;20044;-69
2022/05/10 03:56:44;;;;;;;0.05;0.05;;;19.90;58.00;;;;;;4228330;27;20614;-68
2022/05/10 03:59:06;;;;;;;0.10;0.10;;;19.90;58.10;;;;;;4211197;28;20128;-69
2022/05/10 04:01:30;;;;;;;0.90;0.90;;;19.90;58.10;;;;;;4211609;28;20040;-69
2022/05/10 04:03:52;;;;;;;1.20;0.88;;;19.90;58.10;;;;;;4209921;28;20089;-68
2022/05/10 04:06:17;;;;;;;1.65;1.55;;;19.90;58.10;;;;;;4212008;28;20067;-68
2022/05/10 04:08:39;;;;;;;0.45;0.45;;;19.90;58.10;;;;;;4211578;28;20395;-68
2022/05/10 04:11:02;;;;;;;0.00;0.00;;;19.90;58.10;;;;;;4226699;27;20078;-68
2022/05/10 04:13:29;;;;;;;1.55;1.45;;;19.90;58.10;;;;;;4227671;27;20391;-69
2022/05/10 04:15:51;;;;;;;0.85;0.85;;;19.90;58.20;;;;;;4228619;27;20047;-69
2022/05/10 04:18:15;;;;;;;0.00;0.00;;;19.80;58.10;;;;;;4226975;27;20470;-69
2022/05/10 04:20:38;;;;;;;4.20;2.63;;;19.80;58.10;;;;;;4227997;27;20054;-69
2022/05/10 04:23:00;;;;;;;0.03;0.03;;;19.80;58.10;;;;;;4228450;28;20055;-68
2022/05/10 04:25:23;;;;;;;0.10;0.10;;;19.80;58.20;;;;;;4228384;27;20690;-68
2022/05/10 04:27:46;;;;;;;1.45;1.05;;;19.80;58.20;;;;;;4204998;28;20032;-69
2022/05/10 04:30:09;;;;;;;0.40;0.40;;;19.80;59.00;;;;;;4210646;28;20438;-69
2022/05/10 04:32:31;;;;;;;0.00;0.00;;;19.80;58.30;;;;;;4211120;28;20048;-68
2022/05/10 04:34:55;;;;;;;0.40;0.38;;;19.80;58.30;;;;;;4211033;28;20048;-68
2022/05/10 04:37:17;;;;;;;0.28;0.28;;;19.80;58.30;;;;;;4225811;28;20043;-69
2022/05/10 04:42:18;;;;;;;0.00;0.00;;;19.80;58.40;;;;;;4226930;27;20093;-68
2022/05/10 04:44:41;;;;;;;0.75;0.75;;;19.80;59.20;;;;;;4211805;28;20423;-68
2022/05/10 04:47:03;;;;;;;0.45;0.45;;;19.80;58.40;;;;;;4213620;28;20079;-68
2022/05/10 04:49:25;;;;;;;2.47;1.65;;;19.80;58.40;;;;;;4208309;28;20044;-68
2022/05/10 04:51:48;;;;;;;0.43;0.43;;;19.80;58.40;;;;;;4210639;28;20067;-68
2022/05/10 04:54:10;;;;;;;0.30;0.30;;;19.80;58.50;;;;;;4210467;28;20052;-68
2022/05/10 04:56:33;;;;;;;0.35;0.35;;;19.80;58.50;;;;;;4211096;28;20052;-69
2022/05/10 04:58:55;;;;;;;0.10;0.10;;;19.80;58.50;;;;;;4209433;28;20047;-69
2022/05/10 05:01:18;;;;;;;0.98;0.95;;;19.80;58.50;;;;;;4210817;28;20491;-68
2022/05/10 05:03:44;;;;;;;5.05;2.55;;;19.80;58.50;;;;;;4210498;28;20415;-68
2022/05/10 05:06:06;;;;;;;0.10;0.10;;;19.80;58.50;;;;;;4210538;27;20115;-69
2022/05/10 05:08:30;;;;;;;0.00;0.00;;;19.80;58.50;;;;;;4227716;27;20150;-69
2022/05/10 05:10:52;;;;;;;0.40;0.40;;;19.80;58.50;;;;;;4227685;27;20093;-69
2022/05/10 05:13:15;;;;;;;0.00;0.00;;;19.80;58.50;;;;;;4227592;27;20055;-69
2022/05/10 05:15:37;;;;;;;0.63;0.63;;;19.80;58.50;;;;;;4227382;27;20127;-70
2022/05/10 05:18:03;;;;;;;5.10;0.80;;;19.80;58.50;;;;;;4227179;27;20040;-69
2022/05/10 05:20:27;;;;;;;0.75;0.75;;;19.80;58.60;;;;;;4224571;28;20075;-68
2022/05/10 05:22:49;;;;;;;0.22;0.22;;;19.80;58.60;;;;;;4227553;27;20398;-68
2022/05/10 05:25:14;;;;;;;0.60;0.60;;;19.80;58.60;;;;;;4226859;27;20101;-68
2022/05/10 05:27:36;;;;;;;0.05;0.05;;;19.80;58.60;;;;;;4211732;27;20052;-71
2022/05/10 05:29:58;;;;;;;0.00;0.00;;;19.80;58.90;;;;;;4227211;28;20470;-67
2022/05/10 05:32:28;;;;;;;0.15;0.15;;;19.80;59.30;;;;;;4193650;28;20143;-67
2022/05/10 05:34:52;;;;;;;0.00;0.00;;;19.80;60.00;;;;;;4202818;28;20463;-67
2022/05/10 05:39:53;;;;;;;1.08;0.77;;;19.80;59.00;;;;;;4211119;28;20510;-67
2022/05/10 05:42:17;;;;;;;0.30;0.30;;;19.80;58.90;;;;;;4209551;28;20056;-67
2022/05/10 05:44:40;;;;;;;0.90;0.63;;;19.80;58.90;;;;;;4193640;28;20050;-67
2022/05/10 05:47:02;;;;;;;3.53;1.65;;;19.80;59.00;;;;;;4193211;28;20058;-68
2022/05/10 05:49:26;;;;;;;0.13;0.13;;;19.80;58.90;;;;;;4191506;28;20453;-68
2022/05/10 05:51:48;;;;;;;0.00;0.00;;;19.80;58.90;;;;;;4193351;28;20040;-69
2022/05/10 05:54:10;;;;;;;0.28;0.28;;;19.70;59.60;;;;;;4193187;28;20568;-69
2022/05/10 05:56:32;;;;;;;1.67;1.58;;;19.80;59.30;;;;;;4222999;27;20056;-70
2022/05/10 05:58:55;;;;;;;1.70;1.60;;;19.70;59.40;;;;;;4226695;28;20126;-69
2022/05/10 06:01:18;;;;;;;0.60;0.60;;;19.80;59.50;;;;;;4226411;28;20043;-69
2022/05/10 06:03:42;;;;;;;4.68;3.90;;;19.80;61.70;;;;;;4226607;27;20500;-69
2022/05/10 06:06:05;;;;;;;2.15;2.00;;;19.80;66.40;;;;;;4209827;28;20479;-69
2022/05/10 06:08:28;;;;;;;0.00;0.00;;;19.90;69.80;;;;;;4225766;28;20074;-68
2022/05/10 06:10:52;;;;;;;1.20;1.10;;;19.90;70.80;;;;;;4225237;28;20138;-68
2022/05/10 06:13:20;;;;;;;0.10;0.10;;;19.90;69.00;;;;;;4226526;27;20043;-69
2022/05/10 06:15:44;;;;;;;0.77;0.77;;;19.90;66.30;;;;;;4226538;28;20051;-69
2022/05/10 06:18:07;;;;;;;2.80;2.33;;;19.90;64.30;;;;;;4211834;28;20048;-68
2022/05/10 06:20:29;;;;;;;0.25;0.25;;;19.90;64.20;;;;;;4208503;28;20130;-68
2022/05/10 06:22:51;;;;;;;1.08;1.08;;;19.90;63.70;;;;;;4207885;28;20380;-69
2022/05/10 06:25:17;;;;;;;1.15;1.08;;;19.90;63.70;;;;;;4213053;28;20493;-69
2022/05/10 06:27:39;;;;;;;0.47;0.47;;;19.90;62.90;;;;;;4224871;28;20074;-69
2022/05/10 06:30:01;;;;;;;0.00;0.00;;;19.90;62.50;;;;;;4225955;27;20055;-69
2022/05/10 06:32:27;;;;;;;0.10;0.10;;;19.90;62.20;;;;;;4226028;27;20043;-69
2022/05/10 06:34:49;;;;;;;0.30;0.30;;;19.90;61.80;;;;;;4217026;28;20048;-69
2022/05/10 06:39:51;;;;;;;0.00;0.00;;;19.90;61.10;;;;;;4209285;28;20135;-69
2022/05/10 06:42:13;;;;;;;0.10;0.10;;;19.90;60.60;;;;;;4209193;28;20067;-69
2022/05/10 06:44:35;;;;;;;0.00;0.00;;;20.00;60.30;;;;;;4209484;28;20128;-69
2022/05/10 06:46:59;;;;;;;0.30;0.30;;;20.00;59.90;;;;;;4191717;28;20113;-69
2022/05/10 06:49:24;;;;;;;1.13;0.30;;;20.10;59.60;;;;;;4192806;28;20052;-70
2022/05/10 06:51:46;;;;;;;0.08;0.08;;;20.10;59.10;;;;;;4192751;28;20102;-68
2022/05/10 06:54:08;;;;;;;0.55;0.55;;;20.20;58.80;;;;;;4192288;28;20044;-69
2022/05/10 06:56:30;;;;;;;0.05;0.05;;;20.20;58.40;;;;;;4209624;28;20526;-69
2022/05/10 06:58:52;;;;;;;0.10;0.10;;;20.30;58.10;;;;;;4225997;27;20134;-69
2022/05/10 07:01:15;;;;;;;0.00;0.00;;;20.30;57.90;;;;;;4226193;27;20047;-69
2022/05/10 07:03:37;;;;;;;0.00;0.00;;;20.30;57.60;;;;;;4225351;28;20387;-69
2022/05/10 07:06:03;;;;;;;0.00;0.00;;;20.40;57.50;;;;;;4207975;28;20098;-68
2022/05/10 07:08:25;;;;;;;19.65;1.45;;;20.40;57.20;;;;;;4207874;28;20101;-69
2022/05/10 07:10:47;;;;;;;0.00;0.00;;;20.40;57.10;;;;;;4223853;28;20052;-68
2022/05/10 07:13:09;;;;;;;1.13;1.10;;;20.50;57.00;;;;;;4224318;28;20043;-68
2022/05/10 07:15:31;;;;;;;0.00;0.00;;;20.50;56.90;;;;;;4216152;28;20098;-69
2022/05/10 07:17:53;;;;;;;0.20;0.20;;;20.50;56.80;;;;;;4208472;28;20125;-68
2022/05/10 07:20:17;;;;;;;0.00;0.00;;;20.50;56.80;;;;;;4208580;28;20048;-69
2022/05/10 07:22:41;;;;;;;7.93;1.45;;;20.60;56.80;;;;;;4209095;28;20040;-68
2022/05/10 07:25:03;;;;;;;1.42;1.38;;;20.60;56.70;;;;;;4224425;28;20543;-68
2022/05/10 07:27:25;;;;;;;0.00;0.00;;;20.60;56.60;;;;;;4226068;28;20126;-69
2022/05/10 07:29:47;;;;;;;0.00;0.00;;;20.70;56.60;;;;;;4225776;28;20482;-68
2022/05/10 07:32:10;;;;;;;0.00;0.00;;;20.70;56.70;;;;;;4222546;28;20394;-67
2022/05/10 07:34:32;;;;;;;0.70;0.70;;;20.70;56.60;;;;;;4218073;28;20059;-68
2022/05/10 07:36:54;;;;;;;0.40;0.40;;;20.70;56.70;;;;;;4207288;28;20051;-68
2022/05/10 07:39:18;;;;;;;14.60;1.60;;;20.70;56.60;;;;;;4206889;28;20044;-68
2022/05/10 07:41:40;;;;;;;0.28;0.28;;;20.80;56.70;;;;;;4213294;28;20092;-69
2022/05/10 07:44:03;;;;;;;1.65;0.63;;;20.80;56.60;;;;;;4225849;28;20047;-67
2022/05/10 07:46:26;;;;;;;2.38;2.05;;;20.80;56.60;;;;;;4225578;28;20039;-67
2022/05/10 07:48:48;;;;;;;0.57;0.57;;;20.80;56.50;;;;;;4225178;28;20067;-68
2022/05/10 07:51:11;;;;;;;0.20;0.20;;;20.80;56.90;;;;;;4225844;28;20046;-67
2022/05/10 07:53:35;;;;;;;0.35;0.35;;;20.80;56.40;;;;;;4224225;28;20058;-68
2022/05/10 07:56:00;;;;;;;1.27;1.17;;;20.80;56.30;;;;;;4227193;28;20412;-68
2022/05/10 07:58:22;;;;;;;0.65;0.65;;;20.80;56.20;;;;;;4225865;28;20089;-68
2022/05/10 08:00:44;;;;;;;19.70;1.65;;;20.90;56.20;;;;;;4225593;28;20051;-68
2022/05/10 08:03:12;;;;;;;0.00;0.00;;;20.90;56.90;;;;;;4225679;28;20124;-67
2022/05/10 08:05:34;;;;;;;0.75;0.75;;;20.90;56.00;;;;;;4194390;28;20064;-64
2022/05/10 08:07:58;;;;;;;0.32;0.32;;;20.90;55.90;;;;;;4208523;28;20051;-66
2022/05/10 08:10:26;;;;;;;0.00;0.00;;;21.00;56.60;;;;;;4207522;28;20910;-67
2022/05/10 08:12:51;;;;;;;0.00;0.00;;;21.00;55.80;;;;;;4221788;28;20144;-68
2022/05/10 08:15:15;;;;;;;0.38;0.38;;;21.00;55.70;;;;;;4222485;28;20071;-68
2022/05/10 08:17:37;;;;;;;0.10;0.10;;;21.00;55.70;;;;;;4226107;28;20144;-68
2022/05/10 08:20:00;;;;;;;0.00;0.00;;;21.00;56.30;;;;;;4227988;27;20047;-68
2022/05/10 08:22:23;;;;;;;0.00;0.00;;;21.00;55.50;;;;;;4223699;28;20517;-68
2022/05/10 08:24:47;;;;;;;0.10;0.10;;;21.00;55.40;;;;;;4210993;27;20044;-67
2022/05/10 08:27:10;;;;;;;0.10;0.10;;;21.10;55.30;;;;;;4226138;27;20047;-67
2022/05/10 08:29:34;;;;;;;0.17;0.17;;;21.10;55.30;;;;;;4223183;27;20052;-68
2022/05/10 08:31:58;;;;;;;2.40;1.10;;;21.10;55.20;;;;;;4216761;27;20042;-68
2022/05/10 08:34:22;;;;;;;0.20;0.20;;;21.20;55.20;;;;;;4216768;27;20512;-68
2022/05/10 08:36:47;;;;;;;0.77;0.77;;;21.20;55.20;;;;;;4208086;28;20426;-68
2022/05/10 08:39:10;;;;;;;0.00;0.00;;;21.20;55.20;;;;;;4209236;28;20054;-68
2022/05/10 08:41:42;;;;;;;0.00;0.00;;;21.20;55.10;;;;;;4210914;28;20044;-68
2022/05/10 08:44:10;;;;;;;0.03;0.03;;;21.20;55.10;;;;;;4225129;27;20419;-67
2022/05/10 08:46:41;;;;;;;2.08;1.27;;;21.20;55.10;;;;;;4208123;27;20056;-68
2022/05/10 08:49:19;;;;;;;0.35;0.35;;;21.20;55.00;;;;;;4225255;27;20130;-68
2022/05/10 08:51:42;;;;;;;0.05;0.05;;;21.20;55.00;;;;;;4222963;27;20134;-67
2022/05/10 08:54:05;;;;;;;0.32;0.32;;;21.30;55.00;;;;;;4217690;28;20053;-68
2022/05/10 08:56:31;;;;;;;0.25;0.25;;;21.30;55.00;;;;;;4224035;28;20101;-68
2022/05/10 08:59:06;;;;;;;0.90;0.75;;;21.20;55.00;;;;;;4216445;28;20040;-68
2022/05/10 09:01:37;;;;;;;0.00;0.00;;;21.30;55.00;;;;;;4227511;27;20058;-68
2022/05/10 09:04:07;;;;;;;1.33;1.23;;;21.30;55.00;;;;;;4207769;28;20089;-68
2022/05/10 09:06:40;;;;;;;0.00;0.00;;;21.30;55.00;;;;;;4208692;28;20054;-68
2022/05/10 09:09:17;;;;;;;0.98;0.98;;;21.30;55.00;;;;;;4208989;28;20090;-68
2022/05/10 09:12:09;;;;;;;0.10;0.10;;;21.30;55.70;;;;;;4208622;28;20472;-67
2022/05/10 09:14:42;;;;;;;0.00;0.00;;;21.30;55.00;;;;;;4208931;28;20127;-68
2022/05/10 09:17:05;;;;;;;0.00;0.00;;;21.40;55.00;;;;;;4209658;28;20051;-68
2022/05/10 09:19:38;;;;;;;0.00;0.00;;;21.40;54.90;;;;;;4208481;28;20052;-68
2022/05/10 09:22:25;;;;;;;0.00;0.00;;;21.30;54.90;;;;;;4193062;28;20129;-68
2022/05/10 09:24:52;;;;;;;0.57;0.55;;;21.40;54.90;;;;;;4207153;28;20067;-68
2022/05/10 09:27:18;;;;;;;0.20;0.20;;;21.40;54.90;;;;;;4208239;28;20501;-68
2022/05/10 09:29:44;;;;;;;0.65;0.65;;;21.40;54.90;;;;;;4192680;28;20154;-68
2022/05/10 09:35:10;;;;;;;0.00;0.00;;;21.40;54.90;;;;;;4203529;28;20445;-68
2022/05/10 09:37:36;;;;;;;0.00;0.00;;;21.40;54.90;;;;;;4209727;28;20051;-68
2022/05/10 09:40:08;;;;;;;0.00;0.00;;;21.40;54.80;;;;;;4209142;28;20059;-68
2022/05/10 09:42:33;;;;;;;0.00;0.00;;;21.40;54.80;;;;;;4208944;28;20083;-67
2022/05/10 09:45:00;;;;;;;0.05;0.05;;;21.40;54.80;;;;;;4209637;28;20046;-67
2022/05/10 09:47:24;;;;;;;0.00;0.00;;;21.40;54.80;;;;;;4212399;28;20054;-67
2022/05/10 09:49:46;;;;;;;0.10;0.10;;;21.50;54.80;;;;;;4207046;28;20435;-68
2022/05/10 09:52:19;;;;;;;0.10;0.10;;;21.50;54.80;;;;;;4197385;28;20051;-67
2022/05/10 09:54:43;;;;;;;0.15;0.15;;;21.50;54.80;;;;;;4208364;27;21150;-67
2022/05/10 09:57:13;;;;;;;0.00;0.00;;;21.50;54.80;;;;;;4224046;28;20423;-67
2022/05/10 09:59:44;;;;;;;0.77;0.75;;;21.50;54.80;;;;;;4225028;27;20067;-68
2022/05/10 10:02:07;;;;;;;0.10;0.10;;;21.60;54.80;;;;;;4225259;27;20054;-66
2022/05/10 10:04:33;;;;;;;1.00;0.98;;;21.60;54.70;;;;;;4217670;28;20060;-67
2022/05/10 10:07:06;;;;;;;2.08;1.33;;;21.60;54.70;;;;;;4206753;28;20572;-67
2022/05/10 10:09:31;;;;;;;0.00;0.00;;;21.70;54.70;;;;;;4206261;28;20453;-67
2022/05/10 10:11:54;;;;;;;0.00;0.00;;;21.70;54.70;;;;;;4207328;28;20135;-67
2022/05/10 10:14:41;;;;;;;0.00;0.00;;;21.70;54.70;;;;;;4209276;28;20048;-69
2022/05/10 10:17:04;;;;;;;0.00;0.00;;;21.80;54.80;;;;;;4206132;28;20048;-69
2022/05/10 10:19:37;;;;;;;0.00;0.00;;;21.80;54.80;;;;;;4209441;28;20058;-70
2022/05/10 10:22:06;;;;;;;0.00;0.00;;;21.80;54.80;;;;;;4207992;28;20044;-68
2022/05/10 10:24:35;;;;;;;0.10;0.10;;;21.80;54.80;;;;;;4218603;27;20058;-69
2022/05/10 10:27:06;;;;;;;0.00;0.00;;;21.80;54.90;;;;;;4226271;28;20052;-68
2022/05/10 10:29:40;;;;;;;0.20;0.20;;;21.80;54.90;;;;;;4224960;27;20063;-69
2022/05/10 10:32:07;;;;;;;2.17;1.10;;;21.80;54.90;;;;;;4224911;28;20124;-69
2022/05/10 10:34:40;;;;;;;4.28;1.60;;;21.80;54.80;;;;;;4212021;27;20185;-69
2022/05/10 10:37:08;;;;;;;0.00;0.00;;;21.90;54.80;;;;;;4203624;28;20094;-68
2022/05/10 10:39:40;;;;;;;0.10;0.10;;;21.90;54.80;;;;;;4198036;28;20048;-68
2022/05/10 10:42:07;;;;;;;;;;;21.90;55.50;;;;;;4208147;28;20439;-68
2022/05/10 10:44:32;;;;;;;0.00;0.00;;;21.90;54.80;;;;;;4208311;28;20306;-68
2022/05/10 10:47:07;;;;;;;0.00;0.00;;;21.90;54.70;;;;;;4206339;28;20431;-69
2022/05/10 10:49:37;;;;;;;15.00;1.88;;;22.00;54.70;;;;;;4212389;28;20764;-68
2022/05/10 10:52:01;;;;;;;0.55;0.55;;;22.00;54.70;;;;;;4206666;28;20085;-68
2022/05/10 10:54:26;;;;;;;0.00;0.00;;;22.00;54.70;;;;;;4212751;28;20483;-68
2022/05/10 10:57:27;;;;;;;0.00;0.00;;;22.10;54.60;;;;;;4208746;28;20126;-68
2022/05/10 11:00:07;;;;;;;0.88;0.88;;;22.10;54.60;;;;;;4205911;28;20125;-70
2022/05/10 11:03:09;;;;;;;0.22;0.22;;;22.10;54.60;;;;;;4206100;28;20052;-69
2022/05/10 11:06:09;;;;;;;0.00;0.00;;;22.20;55.20;;;;;;4205614;28;20123;-70
2022/05/10 11:08:47;;;;;;;0.20;0.20;;;22.20;55.60;;;;;;4191912;28;20052;-69
2022/05/10 11:11:24;;;;;;;0.10;0.10;;;22.20;55.60;;;;;;4205309;28;20054;-69
2022/05/10 11:13:58;;;;;;;0.10;0.10;;;22.20;55.60;;;;;;4207250;28;20040;-69
2022/05/10 11:16:34;;;;;;;0.77;0.30;;;22.20;55.60;;;;;;4206701;28;20491;-69
2022/05/10 11:19:22;;;;;;;0.10;0.10;;;22.20;55.60;;;;;;4205319;28;20661;-69
2022/05/10 11:21:53;;;;;;;0.05;0.05;;;22.10;55.50;;;;;;4204828;28;20048;-69
2022/05/10 11:24:27;;;;;;;1.65;1.02;;;22.20;55.50;;;;;;4205236;28;20056;-68
2022/05/10 11:27:14;;;;;;;0.10;0.10;;;22.10;55.60;;;;;;4206315;28;20059;-69
2022/05/10 11:29:53;;;;;;;0.00;0.00;;;22.10;55.50;;;;;;4204086;28;20044;-70
2022/05/10 11:32:28;;;;;;;0.43;0.43;;;22.10;55.50;;;;;;4205254;28;20056;-69
2022/05/10 11:35:09;;;;;;;0.00;0.00;;;22.10;55.60;;;;;;4205237;28;20113;-69
2022/05/10 11:37:36;;;;;;;0.00;0.00;;;22.10;55.70;;;;;;4206161;28;20036;-68
2022/05/10 11:40:42;;;;;;;0.00;0.00;;;22.10;55.70;;;;;;4206926;28;20048;-68
2022/05/10 11:43:38;;;;;;;0.00;0.00;;;22.10;55.70;;;;;;4206079;28;20055;-70
2022/05/10 11:46:48;;;;;;;0.00;0.00;;;22.10;55.70;;;;;;4204777;28;20125;-69
2022/05/10 11:49:29;;;;;;;0.95;0.88;;;22.10;55.70;;;;;;4207224;28;20487;-69
2022/05/10 11:52:29;;;;;;;0.08;0.08;;;22.10;55.70;;;;;;4202900;28;20055;-68
2022/05/10 11:55:01;;;;;;;0.00;0.00;;;22.10;55.70;;;;;;4214652;28;20070;-69
2022/05/10 11:57:27;;;;;;;0.00;0.00;;;22.20;55.70;;;;;;4210818;28;20102;-69
2022/05/10 11:59:50;;;;;;;0.00;0.00;;;22.20;55.70;;;;;;4208747;28;20691;-68
2022/05/10 12:02:43;;;;;;;0.00;0.00;;;22.20;55.70;;;;;;4212835;28;20495;-69
2022/05/10 12:05:25;;;;;;;1.30;0.98;;;22.20;55.60;;;;;;4216575;28;20056;-68
2022/05/10 12:07:49;;;;;;;0.00;0.00;;;22.20;55.50;;;;;;4215797;28;20054;-68
2022/05/10 12:10:34;;;;;;;0.08;0.08;;;22.30;55.60;;;;;;4216740;28;20494;-69
2022/05/10 12:13:06;;;;;;;0.00;0.00;;;22.30;55.60;;;;;;4201403;28;20188;-69
2022/05/10 12:21:21;;;;;;;0.00;0.00;;;22.30;55.40;;;;;;4216153;28;20056;-70
2022/05/10 12:24:06;;;;;;;0.00;0.00;;;22.40;55.30;;;;;;4215982;28;20056;-68
2022/05/10 12:26:43;;;;;;;0.05;0.05;;;22.40;56.00;;;;;;4216211;28;20607;-69
2022/05/10 12:29:08;;;;;;;0.22;0.22;;;22.40;55.20;;;;;;4215000;28;20059;-69
2022/05/10 12:31:57;;;;;;;0.00;0.00;;;22.40;55.00;;;;;;4215196;28;20059;-69
2022/05/10 12:34:43;;;;;;;0.22;0.22;;;22.40;55.00;;;;;;4215036;28;20475;-68
2022/05/10 12:37:39;;;;;;;0.10;0.10;;;22.50;54.90;;;;;;4214943;28;20047;-69
2022/05/10 12:40:05;;;;;;;0.00;0.00;;;22.50;54.80;;;;;;4215949;28;20048;-69
2022/05/10 12:42:36;;;;;;;0.25;0.25;;;22.50;54.80;;;;;;4216122;28;20048;-68
2022/05/10 12:45:16;;;;;;;0.00;0.00;;;22.50;54.70;;;;;;4215031;28;20371;-69
2022/05/10 12:47:55;;;;;;;24.60;0.85;;;22.60;54.70;;;;;;4215913;28;20169;-68
2022/05/10 12:50:35;;;;;;;0.20;0.20;;;22.60;54.60;;;;;;4213879;28;20143;-69
2022/05/10 12:52:58;;;;;;;0.00;0.00;;;22.60;54.50;;;;;;4216391;28;20510;-68
2022/05/10 12:55:23;;;;;;;28.95;1.08;;;22.60;54.50;;;;;;4214614;28;20052;-68
2022/05/10 12:57:52;;;;;;;0.08;0.08;;;22.70;54.50;;;;;;4214487;28;20056;-69
2022/05/10 13:00:22;;;;;;;0.10;0.10;;;22.70;54.50;;;;;;4214629;28;20576;-69
2022/05/10 13:02:50;;;;;;;0.10;0.10;;;22.70;54.50;;;;;;4215492;28;20051;-68
2022/05/10 13:05:19;;;;;;;0.35;0.35;;;22.70;54.50;;;;;;4215428;28;20040;-69